KTXK/TXK METAR and TAF weather

Enter ICAO airport designator
Station Type Date Time Source
KTXK METAR 2020/04/07 05:53 UTC NOAA

KTXK 070553Z AUTO 15003KT 10SM FEW020 BKN037 OVC110 19/17 A3000 RMK AO2 SLP154 60000 T01940172 10211 20178 402330144 55002


Station Type Date Time Source
KTXK Decoded METAR 2020/04/07 05:53 UTC NOAA

TEXARKANA RGNL WEBB FIELD, AR, United States (KTXK) 33-27N 093-59W 111M
Apr 07, 2020 - 01:53 AM EDT / 2020.04.07 0553 UTC
Wind: from the SSE (150 degrees) at 3 MPH (3 KT):0
Visibility: 10 mile(s):0
Sky conditions: overcast
Temperature: 66.9 F (19.4 C)
Dew Point: 63.0 F (17.2 C)
Relative Humidity: 87%
Pressure (altimeter): 30 in. Hg (1015 hPa)
Pressure tendency: 0.01 inches (0.2 hPa) lower than three hours ago
ob: KTXK 070553Z AUTO 15003KT 10SM FEW020 BKN037 OVC110 19/17 A3000 RMK AO2 SLP154 60000 T01940172 10211 20178 402330144 55002
cycle: 6

Station Type Date Time Source
KTXK TAF 2020/04/07 06:27 UTC NOAA

TAF KTXK 070524Z 0706/0806 16005KT P6SM VCSH FEW040 BKN140 OVC200
TEMPO 0706/0710 5SM -SHRA BR BKN015
FM071000 18005KT P6SM VCSH OVC015
TEMPO 0710/0714 5SM -SHRA BR OVC015
FM071400 19006KT P6SM VCSH OVC015
TEMPO 0716/0718 5SM -SHRA BR OVC030
FM071800 22010KT P6SM BKN035 BKN140 OVC250
FM072100 21010KT P6SM SCT040 BKN140 OVC250

Example: see airport list